sensor_id;sensor_type;location;lat;lon;timestamp;P1;durP1;ratioP1;P2;durP2;ratioP2
59986;SDS011;46181;51.498;5.392;2023-03-01T00:02:25;9.096001;;;4.432;;
59986;SDS011;46181;51.498;5.392;2023-03-01T00:06:55;8.224;;;4.912;;
59986;SDS011;46181;51.498;5.392;2023-03-01T00:11:26;7.704;;;4.8;;
59986;SDS011;46181;51.498;5.392;2023-03-01T00:15:55;6.699999;;;4.804;;
59986;SDS011;46181;51.498;5.392;2023-03-01T00:20:25;7.208;;;4.7;;
59986;SDS011;46181;51.498;5.392;2023-03-01T00:24:55;11.76;;;4.92;;
59986;SDS011;46181;51.498;5.392;2023-03-01T00:29:25;7.076;;;4.556;;
59986;SDS011;46181;51.498;5.392;2023-03-01T00:33:56;9.168;;;4.915999;;
59986;SDS011;46181;51.498;5.392;2023-03-01T00:38:25;9.747999;;;5.084;;
59986;SDS011;46181;51.498;5.392;2023-03-01T00:42:55;8.292;;;4.98;;
59986;SDS011;46181;51.498;5.392;2023-03-01T00:47:25;6.508;;;4.28;;
59986;SDS011;46181;51.498;5.392;2023-03-01T00:51:55;8.748;;;4.728001;;
59986;SDS011;46181;51.498;5.392;2023-03-01T00:56:25;7.615999;;;4.716;;
59986;SDS011;46181;51.498;5.392;2023-03-01T01:00:55;7.888002;;;4.936;;
59986;SDS011;46181;51.498;5.392;2023-03-01T01:05:25;8.676001;;;4.92;;
59986;SDS011;46181;51.498;5.392;2023-03-01T01:09:55;8.236;;;5.324001;;
59986;SDS011;46181;51.498;5.392;2023-03-01T01:14:25;9.064002;;;5.308001;;
59986;SDS011;46181;51.498;5.392;2023-03-01T01:18:55;11.696;;;5.14;;
59986;SDS011;46181;51.498;5.392;2023-03-01T01:23:25;8.544001;;;4.792001;;
59986;SDS011;46181;51.498;5.392;2023-03-01T01:27:55;7.684;;;5.528;;
59986;SDS011;46181;51.498;5.392;2023-03-01T01:32:25;10.1;;;5.127999;;
59986;SDS011;46181;51.498;5.392;2023-03-01T01:36:55;7.596;;;5.012;;
59986;SDS011;46181;51.498;5.392;2023-03-01T01:41:25;8.515999;;;4.976;;
59986;SDS011;46181;51.498;5.392;2023-03-01T01:45:55;7.6;;;4.648001;;
59986;SDS011;46181;51.498;5.392;2023-03-01T01:50:25;8.684;;;5.083999;;
59986;SDS011;46181;51.498;5.392;2023-03-01T01:54:56;7.255998;;;4.908;;
59986;SDS011;46181;51.498;5.392;2023-03-01T01:59:25;7.127999;;;4.392;;
59986;SDS011;46181;51.498;5.392;2023-03-01T02:03:55;7.44;;;4.664001;;
59986;SDS011;46181;51.498;5.392;2023-03-01T02:08:26;8.120001;;;5.22;;
59986;SDS011;46181;51.498;5.392;2023-03-01T02:12:55;7.728001;;;4.652;;
59986;SDS011;46181;51.498;5.392;2023-03-01T02:17:25;8.756;;;5;;
59986;SDS011;46181;51.498;5.392;2023-03-01T02:21:56;9.216;;;5.228;;
59986;SDS011;46181;51.498;5.392;2023-03-01T02:26:27;8.091999;;;5.168;;
59986;SDS011;46181;51.498;5.392;2023-03-01T02:30:55;8.735999;;;5.324001;;
59986;SDS011;46181;51.498;5.392;2023-03-01T02:35:25;9.875999;;;5.336001;;
59986;SDS011;46181;51.498;5.392;2023-03-01T02:39:56;9.104;;;4.684;;
59986;SDS011;46181;51.498;5.392;2023-03-01T02:44:25;7.664;;;4.603999;;
59986;SDS011;46181;51.498;5.392;2023-03-01T02:48:56;7.099999;;;4.464;;
59986;SDS011;46181;51.498;5.392;2023-03-01T02:53:25;6.763999;;;4.124001;;
59986;SDS011;46181;51.498;5.392;2023-03-01T02:57:55;8.292001;;;4.704;;
59986;SDS011;46181;51.498;5.392;2023-03-01T03:02:26;6.451999;;;4.692;;
59986;SDS011;46181;51.498;5.392;2023-03-01T03:06:55;7.259999;;;4.544;;
59986;SDS011;46181;51.498;5.392;2023-03-01T03:11:25;9.052001;;;4.875999;;
59986;SDS011;46181;51.498;5.392;2023-03-01T03:15:55;8.184002;;;4.888001;;
59986;SDS011;46181;51.498;5.392;2023-03-01T03:20:26;7.852;;;4.756;;
59986;SDS011;46181;51.498;5.392;2023-03-01T03:24:55;6.704001;;;4.38;;
59986;SDS011;46181;51.498;5.392;2023-03-01T03:29:25;8.599999;;;4.628;;
59986;SDS011;46181;51.498;5.392;2023-03-01T03:33:55;7.184;;;4.732001;;
59986;SDS011;46181;51.498;5.392;2023-03-01T03:38:25;6.567999;;;4.288001;;
59986;SDS011;46181;51.498;5.392;2023-03-01T03:42:55;7.156;;;4.608;;
59986;SDS011;46181;51.498;5.392;2023-03-01T03:47:25;8.079999;;;4.128;;
59986;SDS011;46181;51.498;5.392;2023-03-01T03:51:55;7.656;;;4.296;;
59986;SDS011;46181;51.498;5.392;2023-03-01T03:56:25;8.144001;;;4.075999;;
59986;SDS011;46181;51.498;5.392;2023-03-01T04:00:56;7.236001;;;4.360001;;
59986;SDS011;46181;51.498;5.392;2023-03-01T04:05:25;8.420001;;;4.324;;
59986;SDS011;46181;51.498;5.392;2023-03-01T04:09:55;6.155999;;;4.091999;;
59986;SDS011;46181;51.498;5.392;2023-03-01T04:14:25;7.064;;;3.776;;
59986;SDS011;46181;51.498;5.392;2023-03-01T04:18:55;7.04;;;3.972;;
59986;SDS011;46181;51.498;5.392;2023-03-01T04:23:25;6.275999;;;3.788;;
59986;SDS011;46181;51.498;5.392;2023-03-01T04:27:55;6.608;;;4.095999;;
59986;SDS011;46181;51.498;5.392;2023-03-01T04:32:25;7.231999;;;4.224001;;
59986;SDS011;46181;51.498;5.392;2023-03-01T04:36:55;6.668001;;;3.724;;
59986;SDS011;46181;51.498;5.392;2023-03-01T04:41:25;7.148;;;3.8;;
59986;SDS011;46181;51.498;5.392;2023-03-01T04:45:55;6.9;;;3.932;;
59986;SDS011;46181;51.498;5.392;2023-03-01T04:50:25;7.215999;;;3.564;;
59986;SDS011;46181;51.498;5.392;2023-03-01T04:54:55;6.78;;;3.660001;;
59986;SDS011;46181;51.498;5.392;2023-03-01T04:59:25;7.035999;;;3.94;;
59986;SDS011;46181;51.498;5.392;2023-03-01T05:03:55;5.264;;;3.556;;
59986;SDS011;46181;51.498;5.392;2023-03-01T05:08:25;8.668001;;;3.928;;
59986;SDS011;46181;51.498;5.392;2023-03-01T05:12:55;6.652;;;3.988;;
59986;SDS011;46181;51.498;5.392;2023-03-01T05:17:25;8.180001;;;4.392;;
59986;SDS011;46181;51.498;5.392;2023-03-01T05:21:55;8.98;;;4.8;;
59986;SDS011;46181;51.498;5.392;2023-03-01T05:26:25;7.468;;;4.356;;
59986;SDS011;46181;51.498;5.392;2023-03-01T05:30:55;6.612;;;3.96;;
59986;SDS011;46181;51.498;5.392;2023-03-01T05:35:25;9.184002;;;4.692;;
59986;SDS011;46181;51.498;5.392;2023-03-01T05:39:55;8.920001;;;4.444;;
59986;SDS011;46181;51.498;5.392;2023-03-01T05:44:25;8.919999;;;4.692;;
59986;SDS011;46181;51.498;5.392;2023-03-01T05:48:55;6.804001;;;4.739999;;
59986;SDS011;46181;51.498;5.392;2023-03-01T05:53:25;10.184;;;4.608;;
59986;SDS011;46181;51.498;5.392;2023-03-01T05:57:55;8.708;;;4.408;;
59986;SDS011;46181;51.498;5.392;2023-03-01T06:02:25;9.392;;;4.244;;
59986;SDS011;46181;51.498;5.392;2023-03-01T06:06:55;7.576002;;;4.66;;
59986;SDS011;46181;51.498;5.392;2023-03-01T06:11:25;7.175999;;;4.507999;;
59986;SDS011;46181;51.498;5.392;2023-03-01T06:15:55;7.476;;;4.648;;
59986;SDS011;46181;51.498;5.392;2023-03-01T06:20:25;6.54;;;4.139999;;
59986;SDS011;46181;51.498;5.392;2023-03-01T06:24:55;7.072001;;;4.507999;;
59986;SDS011;46181;51.498;5.392;2023-03-01T06:29:25;8.248;;;4.956001;;
59986;SDS011;46181;51.498;5.392;2023-03-01T06:33:55;7.848;;;4.356;;
59986;SDS011;46181;51.498;5.392;2023-03-01T06:38:25;6.936001;;;3.956;;
59986;SDS011;46181;51.498;5.392;2023-03-01T06:42:55;6.968;;;4.336;;
59986;SDS011;46181;51.498;5.392;2023-03-01T06:47:25;8.176001;;;4.676;;
59986;SDS011;46181;51.498;5.392;2023-03-01T06:51:55;6.964;;;4.711999;;
59986;SDS011;46181;51.498;5.392;2023-03-01T06:56:25;8.776002;;;5.304001;;
59986;SDS011;46181;51.498;5.392;2023-03-01T07:00:55;9.652;;;4.596;;
59986;SDS011;46181;51.498;5.392;2023-03-01T07:05:25;8.119999;;;5.004;;
59986;SDS011;46181;51.498;5.392;2023-03-01T07:09:55;8.5;;;5.208;;
59986;SDS011;46181;51.498;5.392;2023-03-01T07:14:25;9.44;;;5.396;;
59986;SDS011;46181;51.498;5.392;2023-03-01T07:18:55;8.960001;;;5.328001;;
59986;SDS011;46181;51.498;5.392;2023-03-01T07:23:25;10.144;;;5.980001;;
59986;SDS011;46181;51.498;5.392;2023-03-01T07:27:55;9.343999;;;5.372001;;
59986;SDS011;46181;51.498;5.392;2023-03-01T07:32:25;8.144001;;;4.904;;
59986;SDS011;46181;51.498;5.392;2023-03-01T07:36:55;10.256;;;5.780001;;
59986;SDS011;46181;51.498;5.392;2023-03-01T07:41:25;8.556;;;4.824;;
59986;SDS011;46181;51.498;5.392;2023-03-01T07:45:57;8.828;;;5.280001;;
59986;SDS011;46181;51.498;5.392;2023-03-01T07:50:25;8.123999;;;5.188001;;
59986;SDS011;46181;51.498;5.392;2023-03-01T07:54:55;7.708;;;4.923999;;
59986;SDS011;46181;51.498;5.392;2023-03-01T07:59:25;8.959999;;;5.151999;;
59986;SDS011;46181;51.498;5.392;2023-03-01T08:03:55;9.596;;;5.016;;
59986;SDS011;46181;51.498;5.392;2023-03-01T08:08:25;9.075999;;;5.228001;;
59986;SDS011;46181;51.498;5.392;2023-03-01T08:12:55;7.799999;;;5.388001;;
59986;SDS011;46181;51.498;5.392;2023-03-01T08:17:25;8.704;;;5.276001;;
59986;SDS011;46181;51.498;5.392;2023-03-01T08:21:55;8.867999;;;5.416;;
59986;SDS011;46181;51.498;5.392;2023-03-01T08:26:25;9.896;;;5.564;;
59986;SDS011;46181;51.498;5.392;2023-03-01T08:30:55;9.315999;;;5.135999;;
59986;SDS011;46181;51.498;5.392;2023-03-01T08:35:25;9.524;;;5.812;;
59986;SDS011;46181;51.498;5.392;2023-03-01T08:39:55;10.416;;;5.508;;
59986;SDS011;46181;51.498;5.392;2023-03-01T08:44:25;7.768001;;;5.02;;
59986;SDS011;46181;51.498;5.392;2023-03-01T08:48:55;9.120001;;;5.556;;
59986;SDS011;46181;51.498;5.392;2023-03-01T08:53:25;10.4;;;5.488;;
59986;SDS011;46181;51.498;5.392;2023-03-01T08:57:55;8.304001;;;5.148;;
59986;SDS011;46181;51.498;5.392;2023-03-01T09:02:25;9.552001;;;5.336;;
59986;SDS011;46181;51.498;5.392;2023-03-01T09:06:55;8.604;;;5.228001;;
59986;SDS011;46181;51.498;5.392;2023-03-01T09:11:26;8.156001;;;5.344;;
59986;SDS011;46181;51.498;5.392;2023-03-01T09:15:55;7.872;;;4.38;;
59986;SDS011;46181;51.498;5.392;2023-03-01T09:20:25;7.975999;;;4.639999;;
59986;SDS011;46181;51.498;5.392;2023-03-01T09:24:55;8.091999;;;4.659999;;
59986;SDS011;46181;51.498;5.392;2023-03-01T09:29:25;8.472001;;;4.975999;;
59986;SDS011;46181;51.498;5.392;2023-03-01T09:33:55;7.44;;;4.68;;
59986;SDS011;46181;51.498;5.392;2023-03-01T09:38:25;8.776001;;;4.492;;
59986;SDS011;46181;51.498;5.392;2023-03-01T09:42:58;7.216001;;;4.547999;;
59986;SDS011;46181;51.498;5.392;2023-03-01T09:47:26;8.531999;;;5.396001;;
59986;SDS011;46181;51.498;5.392;2023-03-01T09:51:59;6.96;;;4.58;;
59986;SDS011;46181;51.498;5.392;2023-03-01T09:56:27;8.655999;;;5.448;;
59986;SDS011;46181;51.498;5.392;2023-03-01T10:00:56;8.46;;;4.715999;;
59986;SDS011;46181;51.498;5.392;2023-03-01T10:05:29;9.031999;;;4.908;;
59986;SDS011;46181;51.498;5.392;2023-03-01T10:09:55;8.168;;;4.599999;;
59986;SDS011;46181;51.498;5.392;2023-03-01T10:14:29;8.007998;;;4.848001;;
59986;SDS011;46181;51.498;5.392;2023-03-01T10:18:56;8.563999;;;4.82;;
59986;SDS011;46181;51.498;5.392;2023-03-01T10:23:26;9.076;;;5.252001;;
59986;SDS011;46181;51.498;5.392;2023-03-01T10:28:02;8.704001;;;4.984001;;
59986;SDS011;46181;51.498;5.392;2023-03-01T10:32:25;9.095999;;;4.836;;
59986;SDS011;46181;51.498;5.392;2023-03-01T10:36:56;10.984;;;5.488;;
59986;SDS011;46181;51.498;5.392;2023-03-01T10:41:26;9.555998;;;4.552;;
59986;SDS011;46181;51.498;5.392;2023-03-01T10:45:55;6.808001;;;4.619999;;
59986;SDS011;46181;51.498;5.392;2023-03-01T10:50:25;9.496;;;4.724001;;
59986;SDS011;46181;51.498;5.392;2023-03-01T10:54:56;7.364001;;;4.420001;;
59986;SDS011;46181;51.498;5.392;2023-03-01T10:59:27;7.764001;;;4.584;;
59986;SDS011;46181;51.498;5.392;2023-03-01T11:08:40;8.784002;;;4.940001;;
59986;SDS011;46181;51.498;5.392;2023-03-01T11:13:05;8.231999;;;4.543999;;
59986;SDS011;46181;51.498;5.392;2023-03-01T11:17:27;8.348;;;5.04;;
59986;SDS011;46181;51.498;5.392;2023-03-01T11:22:03;10.236;;;5.603998;;
59986;SDS011;46181;51.498;5.392;2023-03-01T11:26:25;8.892;;;5.667999;;
59986;SDS011;46181;51.498;5.392;2023-03-01T11:30:55;9.411999;;;5.776001;;
59986;SDS011;46181;51.498;5.392;2023-03-01T11:35:26;10.848;;;5.420001;;
59986;SDS011;46181;51.498;5.392;2023-03-01T11:39:58;9.184;;;5.556;;
59986;SDS011;46181;51.498;5.392;2023-03-01T11:44:26;10.108;;;5.916002;;
59986;SDS011;46181;51.498;5.392;2023-03-01T11:48:57;7.916001;;;4.860001;;
59986;SDS011;46181;51.498;5.392;2023-03-01T11:53:39;9.532001;;;5.216001;;
59986;SDS011;46181;51.498;5.392;2023-03-01T11:58:00;10.216;;;5.599999;;
59986;SDS011;46181;51.498;5.392;2023-03-01T12:02:46;8.907999;;;5.28;;
59986;SDS011;46181;51.498;5.392;2023-03-01T12:06:56;8.156;;;5.063999;;
59986;SDS011;46181;51.498;5.392;2023-03-01T12:11:28;9.22;;;5.76;;
59986;SDS011;46181;51.498;5.392;2023-03-01T12:15:58;12.048;;;5.756;;
59986;SDS011;46181;51.498;5.392;2023-03-01T12:20:26;8.508001;;;5.380001;;
59986;SDS011;46181;51.498;5.392;2023-03-01T12:29:28;9.128;;;5.248001;;
59986;SDS011;46181;51.498;5.392;2023-03-01T12:33:56;9.92;;;5.432;;
59986;SDS011;46181;51.498;5.392;2023-03-01T12:38:31;8.224;;;5.211999;;
59986;SDS011;46181;51.498;5.392;2023-03-01T12:42:58;8.352002;;;4.824;;
59986;SDS011;46181;51.498;5.392;2023-03-01T12:51:57;8.504;;;4.776001;;
59986;SDS011;46181;51.498;5.392;2023-03-01T12:56:27;8.247999;;;4.568;;
59986;SDS011;46181;51.498;5.392;2023-03-01T13:00:59;8.023999;;;4.736;;
59986;SDS011;46181;51.498;5.392;2023-03-01T13:05:32;9.216001;;;5.184;;
59986;SDS011;46181;51.498;5.392;2023-03-01T13:09:57;9.608001;;;4.892;;
59986;SDS011;46181;51.498;5.392;2023-03-01T13:14:46;8.148001;;;4.88;;
59986;SDS011;46181;51.498;5.392;2023-03-01T13:18:59;7.24;;;4.416001;;
59986;SDS011;46181;51.498;5.392;2023-03-01T13:23:29;7.731999;;;5.032;;
59986;SDS011;46181;51.498;5.392;2023-03-01T13:27:55;7.656;;;4.719999;;
59986;SDS011;46181;51.498;5.392;2023-03-01T13:32:26;8.432;;;4.892001;;
59986;SDS011;46181;51.498;5.392;2023-03-01T13:36:55;7.856;;;5.112;;
59986;SDS011;46181;51.498;5.392;2023-03-01T13:45:55;8.104;;;5.112;;
59986;SDS011;46181;51.498;5.392;2023-03-01T13:50:27;7.967999;;;4.504;;
59986;SDS011;46181;51.498;5.392;2023-03-01T13:54:55;8.035999;;;4.744001;;
59986;SDS011;46181;51.498;5.392;2023-03-01T13:59:25;8.66;;;4.856;;
59986;SDS011;46181;51.498;5.392;2023-03-01T14:03:55;10.344;;;4.744;;
59986;SDS011;46181;51.498;5.392;2023-03-01T14:08:26;9.780002;;;5.123999;;
59986;SDS011;46181;51.498;5.392;2023-03-01T14:12:57;8.184;;;4.884;;
59986;SDS011;46181;51.498;5.392;2023-03-01T14:17:35;8.204;;;5.288001;;
59986;SDS011;46181;51.498;5.392;2023-03-01T14:22:03;8.436001;;;5.372001;;
59986;SDS011;46181;51.498;5.392;2023-03-01T14:26:25;7.456;;;4.788001;;
59986;SDS011;46181;51.498;5.392;2023-03-01T14:30:56;9.952;;;5.376001;;
59986;SDS011;46181;51.498;5.392;2023-03-01T14:35:26;8.424;;;5.348001;;
59986;SDS011;46181;51.498;5.392;2023-03-01T14:39:56;9.204;;;4.972;;
59986;SDS011;46181;51.498;5.392;2023-03-01T14:44:25;8.699999;;;4.704;;
59986;SDS011;46181;51.498;5.392;2023-03-01T14:48:56;7.924;;;5.107999;;
59986;SDS011;46181;51.498;5.392;2023-03-01T14:53:26;8.651999;;;5.112;;
59986;SDS011;46181;51.498;5.392;2023-03-01T14:57:55;8.856;;;4.9;;
59986;SDS011;46181;51.498;5.392;2023-03-01T15:02:26;7.940001;;;4.684;;
59986;SDS011;46181;51.498;5.392;2023-03-01T15:06:55;9.588;;;5.352001;;
59986;SDS011;46181;51.498;5.392;2023-03-01T15:11:27;9.664001;;;5.316001;;
59986;SDS011;46181;51.498;5.392;2023-03-01T15:15:59;7.692001;;;4.956;;
59986;SDS011;46181;51.498;5.392;2023-03-01T15:20:27;8.807998;;;5.352001;;
59986;SDS011;46181;51.498;5.392;2023-03-01T15:24:55;10.66;;;5.115999;;
59986;SDS011;46181;51.498;5.392;2023-03-01T15:29:26;7.235999;;;4.42;;
59986;SDS011;46181;51.498;5.392;2023-03-01T15:33:58;10.232;;;5.424;;
59986;SDS011;46181;51.498;5.392;2023-03-01T15:38:29;9.412;;;5.492001;;
59986;SDS011;46181;51.498;5.392;2023-03-01T15:42:55;10.364;;;5.508;;
59986;SDS011;46181;51.498;5.392;2023-03-01T15:47:26;8.796;;;5.736001;;
59986;SDS011;46181;51.498;5.392;2023-03-01T15:51:55;11.684;;;5.484;;
59986;SDS011;46181;51.498;5.392;2023-03-01T15:56:25;10.84;;;5.852002;;
59986;SDS011;46181;51.498;5.392;2023-03-01T16:00:55;10.676;;;5.836;;
59986;SDS011;46181;51.498;5.392;2023-03-01T16:05:26;11.296;;;5.98;;
59986;SDS011;46181;51.498;5.392;2023-03-01T16:09:56;10.708;;;5.908001;;
59986;SDS011;46181;51.498;5.392;2023-03-01T16:14:25;9.888001;;;6.256;;
59986;SDS011;46181;51.498;5.392;2023-03-01T16:18:55;9.027998;;;5.727999;;
59986;SDS011;46181;51.498;5.392;2023-03-01T16:23:25;11.488;;;6.244;;
59986;SDS011;46181;51.498;5.392;2023-03-01T16:27:55;9.852;;;5.888001;;
59986;SDS011;46181;51.498;5.392;2023-03-01T16:32:25;10.848;;;6.136;;
59986;SDS011;46181;51.498;5.392;2023-03-01T16:36:55;12.5;;;5.996;;
59986;SDS011;46181;51.498;5.392;2023-03-01T16:41:26;10.352;;;6.179999;;
59986;SDS011;46181;51.498;5.392;2023-03-01T16:45:55;10.116;;;6.092;;
59986;SDS011;46181;51.498;5.392;2023-03-01T16:50:25;10.556;;;6.108;;
59986;SDS011;46181;51.498;5.392;2023-03-01T16:54:55;9.043999;;;5.52;;
59986;SDS011;46181;51.498;5.392;2023-03-01T16:59:25;8.979999;;;5.372;;
59986;SDS011;46181;51.498;5.392;2023-03-01T17:03:55;9.252;;;5.584;;
59986;SDS011;46181;51.498;5.392;2023-03-01T17:08:25;10.904;;;6.084001;;
59986;SDS011;46181;51.498;5.392;2023-03-01T17:12:55;9.799999;;;5.852001;;
59986;SDS011;46181;51.498;5.392;2023-03-01T17:17:25;8.799999;;;5.336;;
59986;SDS011;46181;51.498;5.392;2023-03-01T17:21:55;10.388;;;6.284001;;
59986;SDS011;46181;51.498;5.392;2023-03-01T17:26:26;9.212;;;5.376;;
59986;SDS011;46181;51.498;5.392;2023-03-01T17:30:55;11.02;;;5.828001;;
59986;SDS011;46181;51.498;5.392;2023-03-01T17:35:25;12.36;;;6.907999;;
59986;SDS011;46181;51.498;5.392;2023-03-01T17:39:55;9.659999;;;5.676;;
59986;SDS011;46181;51.498;5.392;2023-03-01T17:44:25;8.688001;;;5.147999;;
59986;SDS011;46181;51.498;5.392;2023-03-01T17:48:55;12.904;;;5.788;;
59986;SDS011;46181;51.498;5.392;2023-03-01T17:53:25;10.128;;;5.628;;
59986;SDS011;46181;51.498;5.392;2023-03-01T17:57:55;10.44;;;5.535999;;
59986;SDS011;46181;51.498;5.392;2023-03-01T18:02:25;11.236;;;5.360001;;
59986;SDS011;46181;51.498;5.392;2023-03-01T18:06:55;10.644;;;5.832001;;
59986;SDS011;46181;51.498;5.392;2023-03-01T18:11:26;10.704;;;5.388001;;
59986;SDS011;46181;51.498;5.392;2023-03-01T18:15:56;9.052;;;5.272001;;
59986;SDS011;46181;51.498;5.392;2023-03-01T18:20:25;10.644;;;5.868001;;
59986;SDS011;46181;51.498;5.392;2023-03-01T18:24:56;8.688;;;5.204;;
59986;SDS011;46181;51.498;5.392;2023-03-01T18:29:25;9.872;;;5.44;;
59986;SDS011;46181;51.498;5.392;2023-03-01T18:33:56;10.084;;;5.796001;;
59986;SDS011;46181;51.498;5.392;2023-03-01T18:38:26;12.288;;;6.067999;;
59986;SDS011;46181;51.498;5.392;2023-03-01T18:42:56;10.396;;;6.119999;;
59986;SDS011;46181;51.498;5.392;2023-03-01T18:47:26;9.851998;;;6.067999;;
59986;SDS011;46181;51.498;5.392;2023-03-01T18:51:55;9.952;;;5.528;;
59986;SDS011;46181;51.498;5.392;2023-03-01T18:56:27;13.064;;;6.703999;;
59986;SDS011;46181;51.498;5.392;2023-03-01T19:00:55;13.068;;;6.612;;
59986;SDS011;46181;51.498;5.392;2023-03-01T19:05:26;10.212;;;6.432001;;
59986;SDS011;46181;51.498;5.392;2023-03-01T19:09:56;11.384;;;5.655999;;
59986;SDS011;46181;51.498;5.392;2023-03-01T19:14:26;10.404;;;5.68;;
59986;SDS011;46181;51.498;5.392;2023-03-01T19:18:56;9.951998;;;5.44;;
59986;SDS011;46181;51.498;5.392;2023-03-01T19:23:26;8.888001;;;5.627999;;
59986;SDS011;46181;51.498;5.392;2023-03-01T19:27:56;8.088001;;;5.219999;;
59986;SDS011;46181;51.498;5.392;2023-03-01T19:32:26;16.096;;;7.864001;;
59986;SDS011;46181;51.498;5.392;2023-03-01T19:36:56;11.328;;;5.516;;
59986;SDS011;46181;51.498;5.392;2023-03-01T19:41:26;11.592;;;6.227999;;
59986;SDS011;46181;51.498;5.392;2023-03-01T19:45:56;10.456;;;5.444;;
59986;SDS011;46181;51.498;5.392;2023-03-01T19:50:26;8.300002;;;5.312001;;
59986;SDS011;46181;51.498;5.392;2023-03-01T19:54:56;13.196;;;5.787999;;
59986;SDS011;46181;51.498;5.392;2023-03-01T19:59:26;8.780001;;;4.42;;
59986;SDS011;46181;51.498;5.392;2023-03-01T20:03:56;8.279999;;;4.559999;;
59986;SDS011;46181;51.498;5.392;2023-03-01T20:08:26;10.96;;;4.752001;;
59986;SDS011;46181;51.498;5.392;2023-03-01T20:12:56;8.94;;;4.708;;
59986;SDS011;46181;51.498;5.392;2023-03-01T20:17:26;7.884001;;;4.528;;
59986;SDS011;46181;51.498;5.392;2023-03-01T20:21:56;7.763999;;;4.648001;;
59986;SDS011;46181;51.498;5.392;2023-03-01T20:26:26;9.771999;;;5.456001;;
59986;SDS011;46181;51.498;5.392;2023-03-01T20:31:00;7.235999;;;4.631999;;
59986;SDS011;46181;51.498;5.392;2023-03-01T20:35:26;7.815999;;;4.372;;
59986;SDS011;46181;51.498;5.392;2023-03-01T20:39:57;7.059999;;;4.576;;
59986;SDS011;46181;51.498;5.392;2023-03-01T20:44:26;8.148001;;;4.432001;;
59986;SDS011;46181;51.498;5.392;2023-03-01T20:48:56;7.460001;;;4.38;;
59986;SDS011;46181;51.498;5.392;2023-03-01T20:53:26;9.200001;;;4.472;;
59986;SDS011;46181;51.498;5.392;2023-03-01T20:57:56;7.928001;;;3.952;;
59986;SDS011;46181;51.498;5.392;2023-03-01T21:02:26;8.967999;;;4.308;;
59986;SDS011;46181;51.498;5.392;2023-03-01T21:06:56;7.920001;;;4.059999;;
59986;SDS011;46181;51.498;5.392;2023-03-01T21:11:26;8.004001;;;3.979999;;
59986;SDS011;46181;51.498;5.392;2023-03-01T21:15:56;6.304;;;3.684;;
59986;SDS011;46181;51.498;5.392;2023-03-01T21:20:26;9.867999;;;4.183999;;
59986;SDS011;46181;51.498;5.392;2023-03-01T21:24:56;7.583999;;;3.736;;
59986;SDS011;46181;51.498;5.392;2023-03-01T21:29:26;8.396;;;4.288;;
59986;SDS011;46181;51.498;5.392;2023-03-01T21:33:56;7.44;;;4.204;;
59986;SDS011;46181;51.498;5.392;2023-03-01T21:38:26;7.796001;;;3.876001;;
59986;SDS011;46181;51.498;5.392;2023-03-01T21:42:56;5.319999;;;3.16;;
59986;SDS011;46181;51.498;5.392;2023-03-01T21:47:26;8.66;;;3.764;;
59986;SDS011;46181;51.498;5.392;2023-03-01T21:51:56;7.14;;;4.059999;;
59986;SDS011;46181;51.498;5.392;2023-03-01T21:56:26;7.259999;;;3.804;;
59986;SDS011;46181;51.498;5.392;2023-03-01T22:00:56;9.867999;;;4.567999;;
59986;SDS011;46181;51.498;5.392;2023-03-01T22:05:26;6.400001;;;3.572;;
59986;SDS011;46181;51.498;5.392;2023-03-01T22:09:56;7.791999;;;4.055999;;
59986;SDS011;46181;51.498;5.392;2023-03-01T22:14:26;7.307999;;;4.132;;
59986;SDS011;46181;51.498;5.392;2023-03-01T22:18:56;7.096;;;4.012;;
59986;SDS011;46181;51.498;5.392;2023-03-01T22:23:26;11.148;;;3.88;;
59986;SDS011;46181;51.498;5.392;2023-03-01T22:27:56;7.759999;;;3.556;;
59986;SDS011;46181;51.498;5.392;2023-03-01T22:32:26;7.219999;;;3.584;;
59986;SDS011;46181;51.498;5.392;2023-03-01T22:36:56;7.476;;;3.972;;
59986;SDS011;46181;51.498;5.392;2023-03-01T22:41:26;7.552001;;;4.304;;
59986;SDS011;46181;51.498;5.392;2023-03-01T22:45:56;8.072001;;;4.112;;
59986;SDS011;46181;51.498;5.392;2023-03-01T22:50:26;8.488001;;;3.864001;;
59986;SDS011;46181;51.498;5.392;2023-03-01T22:54:56;8.280002;;;4.296;;
59986;SDS011;46181;51.498;5.392;2023-03-01T22:59:26;9.112;;;3.988;;
59986;SDS011;46181;51.498;5.392;2023-03-01T23:03:56;7.196001;;;4.151999;;
59986;SDS011;46181;51.498;5.392;2023-03-01T23:08:26;8.592001;;;4.360001;;
59986;SDS011;46181;51.498;5.392;2023-03-01T23:12:56;7.780001;;;4.440001;;
59986;SDS011;46181;51.498;5.392;2023-03-01T23:17:26;10.392;;;4.116;;
59986;SDS011;46181;51.498;5.392;2023-03-01T23:21:56;7.239999;;;3.908001;;
59986;SDS011;46181;51.498;5.392;2023-03-01T23:26:27;8.459999;;;3.984;;
59986;SDS011;46181;51.498;5.392;2023-03-01T23:30:59;8.556;;;3.832;;
59986;SDS011;46181;51.498;5.392;2023-03-01T23:35:26;7.212001;;;3.719999;;
59986;SDS011;46181;51.498;5.392;2023-03-01T23:39:56;7.748001;;;3.988;;
59986;SDS011;46181;51.498;5.392;2023-03-01T23:44:26;7.46;;;4.035999;;
59986;SDS011;46181;51.498;5.392;2023-03-01T23:48:56;7.948;;;3.904;;
59986;SDS011;46181;51.498;5.392;2023-03-01T23:53:26;7.912001;;;3.932;;
59986;SDS011;46181;51.498;5.392;2023-03-01T23:57:56;6.496;;;3.716001;;
